createdAt,value
2023-05-09T00:01:31.442Z,29.70
2023-05-09T00:03:59.643Z,29.10
2023-05-09T00:06:27.747Z,30.33
2023-05-09T00:08:55.795Z,30.23
2023-05-09T00:11:22.962Z,29.67
2023-05-09T00:13:50.725Z,30.60
2023-05-09T00:16:18.586Z,29.48
2023-05-09T00:18:45.776Z,29.77
2023-05-09T00:21:12.808Z,30.38
2023-05-09T00:23:39.896Z,31.48
2023-05-09T00:26:07.111Z,29.80
2023-05-09T00:28:34.191Z,30.83
2023-05-09T00:31:01.455Z,32.25
2023-05-09T00:33:28.822Z,29.90
2023-05-09T00:35:56.252Z,31.45
2023-05-09T00:38:23.834Z,32.22
2023-05-09T00:40:51.378Z,29.05
2023-05-09T00:43:18.628Z,30.42
2023-05-09T00:45:46.191Z,29.98
2023-05-09T00:48:15.377Z,31.38
2023-05-09T00:50:43.216Z,29.73
2023-05-09T00:53:10.597Z,31.73
2023-05-09T00:55:38.126Z,30.63
2023-05-09T00:58:06.203Z,32.13
2023-05-09T01:00:33.690Z,30.73
2023-05-09T01:03:01.065Z,31.85
2023-05-09T01:05:37.024Z,31.35
2023-05-09T01:08:13.148Z,29.40
2023-05-09T01:10:58.343Z,31.55
2023-05-09T01:13:51.860Z,31.27
2023-05-09T01:16:43.163Z,30.77
2023-05-09T01:19:28.802Z,31.40
2023-05-09T01:21:57.076Z,31.58
2023-05-09T01:24:32.838Z,31.58
2023-05-09T01:27:27.062Z,31.10
2023-05-09T01:30:02.986Z,30.35
2023-05-09T01:32:32.833Z,29.80
2023-05-09T01:35:02.632Z,32.58
2023-05-09T01:37:35.898Z,33.67
2023-05-09T01:40:23.964Z,31.45
2023-05-09T01:43:03.954Z,32.85
2023-05-09T01:45:32.725Z,32.05
2023-05-09T01:48:00.836Z,32.00
2023-05-09T01:50:30.063Z,31.17
2023-05-09T01:52:59.502Z,32.10
2023-05-09T01:55:28.906Z,31.60
2023-05-09T01:57:58.697Z,31.23
2023-05-09T02:00:27.165Z,32.42
2023-05-09T02:02:55.531Z,31.63
2023-05-09T02:05:27.204Z,31.38
2023-05-09T02:07:59.307Z,32.50
2023-05-09T02:10:29.332Z,33.40
2023-05-09T02:12:57.427Z,31.77
2023-05-09T02:15:24.798Z,33.78
2023-05-09T02:17:52.419Z,33.13
2023-05-09T02:20:20.144Z,33.83
2023-05-09T02:22:47.936Z,31.63
2023-05-09T02:25:15.506Z,32.67
2023-05-09T02:27:46.651Z,32.08
2023-05-09T02:30:20.620Z,33.67
2023-05-09T02:32:50.569Z,32.55
2023-05-09T02:35:18.785Z,32.80
2023-05-09T02:37:47.013Z,31.30
2023-05-09T02:40:14.742Z,31.48
2023-05-09T02:42:41.936Z,30.58
2023-05-09T02:45:10.555Z,31.80
2023-05-09T02:47:38.496Z,32.83
2023-05-09T02:50:06.684Z,32.90
2023-05-09T02:52:33.839Z,30.80
2023-05-09T02:55:00.882Z,31.27
2023-05-09T02:57:27.969Z,32.13
2023-05-09T02:59:55.138Z,31.50
2023-05-09T03:02:23.770Z,31.08
2023-05-09T03:04:50.985Z,31.98
2023-05-09T03:07:18.090Z,32.10
2023-05-09T03:09:45.162Z,32.85
2023-05-09T03:12:12.213Z,32.03
2023-05-09T03:14:39.327Z,32.30
2023-05-09T03:17:06.433Z,31.83
2023-05-09T03:19:33.652Z,31.73
2023-05-09T03:22:00.872Z,31.10
2023-05-09T03:24:30.787Z,32.05
2023-05-09T03:26:57.833Z,32.60
2023-05-09T03:29:25.931Z,33.20
2023-05-09T03:31:53.162Z,30.83
2023-05-09T03:34:20.373Z,33.38
2023-05-09T03:36:47.439Z,31.85
2023-05-09T03:39:14.454Z,31.33
2023-05-09T03:41:43.616Z,31.75
2023-05-09T03:44:10.717Z,31.30
2023-05-09T03:46:37.802Z,31.60
2023-05-09T03:49:05.120Z,32.63
2023-05-09T03:51:32.665Z,31.40
2023-05-09T03:53:59.997Z,32.15
2023-05-09T03:56:27.210Z,31.48
2023-05-09T03:58:54.288Z,29.50
2023-05-09T04:01:21.358Z,31.77
2023-05-09T04:03:48.404Z,29.75
2023-05-09T04:06:15.998Z,30.17
2023-05-09T04:08:43.167Z,31.83
2023-05-09T04:11:10.355Z,29.95
2023-05-09T04:13:37.482Z,30.30
2023-05-09T04:16:05.057Z,30.00
2023-05-09T04:18:32.124Z,29.92
2023-05-09T04:20:59.130Z,28.35
2023-05-09T04:23:26.201Z,29.95
2023-05-09T04:25:54.314Z,29.17
2023-05-09T04:28:21.431Z,29.70
2023-05-09T04:30:48.553Z,27.63
2023-05-09T04:33:15.982Z,27.15
2023-05-09T04:35:43.126Z,28.00
2023-05-09T04:38:10.358Z,28.65
2023-05-09T04:40:37.536Z,27.35
2023-05-09T04:43:05.213Z,27.02
2023-05-09T04:45:32.303Z,24.90
2023-05-09T04:47:59.393Z,26.50
2023-05-09T04:50:26.547Z,26.88
2023-05-09T04:52:53.511Z,25.40
2023-05-09T04:55:20.568Z,23.77
2023-05-09T04:57:47.683Z,24.70
2023-05-09T05:00:17.076Z,24.27
2023-05-09T05:02:44.217Z,24.08
2023-05-09T05:05:12.634Z,23.67
2023-05-09T05:07:39.907Z,22.15
2023-05-09T05:10:07.532Z,22.48
2023-05-09T05:12:34.676Z,20.90
2023-05-09T05:15:02.077Z,20.73
2023-05-09T05:17:29.596Z,21.48
2023-05-09T05:19:56.870Z,21.17
2023-05-09T05:22:24.300Z,21.05
2023-05-09T05:24:51.375Z,20.60
2023-05-09T05:27:18.488Z,20.25
2023-05-09T05:29:45.969Z,19.15
2023-05-09T05:32:13.094Z,18.02
2023-05-09T05:34:40.213Z,18.35
2023-05-09T05:37:07.362Z,18.02
2023-05-09T05:39:34.458Z,15.60
2023-05-09T05:42:01.926Z,16.23
2023-05-09T05:44:29.089Z,17.92
2023-05-09T05:46:56.205Z,17.67
2023-05-09T05:49:25.047Z,16.08
2023-05-09T05:51:52.174Z,16.88
2023-05-09T05:54:19.257Z,16.17
2023-05-09T05:56:46.771Z,16.42
2023-05-09T05:59:13.809Z,16.35
2023-05-09T06:01:41.221Z,15.77
2023-05-09T06:04:08.507Z,15.48
2023-05-09T06:06:36.378Z,15.30
2023-05-09T06:09:03.478Z,14.63
2023-05-09T06:11:30.553Z,14.57
2023-05-09T06:13:57.656Z,13.93
2023-05-09T06:16:24.902Z,14.02
2023-05-09T06:18:54.890Z,14.80
2023-05-09T06:21:23.216Z,16.13
2023-05-09T06:24:02.066Z,14.10
2023-05-09T06:26:36.234Z,15.98
2023-05-09T06:29:04.523Z,15.45
2023-05-09T06:31:31.791Z,15.57
2023-05-09T06:33:58.894Z,16.08
2023-05-09T06:36:26.213Z,15.63
2023-05-09T06:38:54.104Z,16.63
2023-05-09T06:41:21.795Z,16.48
2023-05-09T06:43:49.901Z,15.30
2023-05-09T06:46:17.211Z,15.57
2023-05-09T06:48:44.613Z,15.30
2023-05-09T06:51:11.655Z,15.02
2023-05-09T06:53:38.673Z,16.50
2023-05-09T06:56:06.925Z,15.43
2023-05-09T06:58:34.098Z,13.82
2023-05-09T07:01:01.629Z,14.30
2023-05-09T07:03:28.759Z,15.40
2023-05-09T07:05:58.794Z,13.95
2023-05-09T07:08:26.708Z,14.30
2023-05-09T07:10:53.849Z,14.15
2023-05-09T07:13:21.035Z,13.52
2023-05-09T07:15:48.145Z,13.65
2023-05-09T07:18:15.814Z,14.43
2023-05-09T07:20:42.922Z,13.02
2023-05-09T07:23:09.952Z,13.77
2023-05-09T07:25:37.065Z,13.70
2023-05-09T07:28:04.347Z,15.02
2023-05-09T07:30:31.452Z,13.10
2023-05-09T07:32:58.587Z,14.18
2023-05-09T07:35:26.354Z,13.70
2023-05-09T07:37:53.662Z,15.10
2023-05-09T07:40:20.817Z,14.35
2023-05-09T07:42:49.925Z,15.40
2023-05-09T07:45:18.357Z,14.48
2023-05-09T07:47:47.233Z,14.90
2023-05-09T07:50:14.288Z,14.32
2023-05-09T07:52:41.432Z,14.77
2023-05-09T07:55:09.053Z,15.88
2023-05-09T07:57:37.089Z,14.50
2023-05-09T08:00:06.875Z,14.43
2023-05-09T08:02:34.043Z,14.40
2023-05-09T08:05:01.769Z,14.73
2023-05-09T08:07:28.888Z,13.95
2023-05-09T08:09:56.066Z,14.68
2023-05-09T08:12:23.105Z,13.38
2023-05-09T08:14:50.266Z,14.35
2023-05-09T08:17:17.600Z,14.10
2023-05-09T08:19:44.686Z,13.70
2023-05-09T08:22:18.633Z,13.02
2023-05-09T08:24:46.972Z,13.57
2023-05-09T08:27:15.780Z,13.15
2023-05-09T08:29:43.607Z,14.25
2023-05-09T08:32:10.727Z,13.93
2023-05-09T08:34:37.850Z,13.73
2023-05-09T08:37:05.289Z,12.98
2023-05-09T08:39:34.787Z,13.65
2023-05-09T08:42:02.498Z,12.77
2023-05-09T08:44:32.121Z,13.80
2023-05-09T08:47:00.836Z,13.13
2023-05-09T08:49:28.711Z,13.05
2023-05-09T08:51:57.019Z,12.70
2023-05-09T08:54:24.898Z,13.23
2023-05-09T08:56:52.244Z,12.70
2023-05-09T08:59:19.630Z,10.98
2023-05-09T09:01:47.446Z,11.85
2023-05-09T09:04:14.883Z,11.73
2023-05-09T09:06:42.650Z,10.80
2023-05-09T09:09:11.879Z,9.40
2023-05-09T09:11:40.665Z,9.80
2023-05-09T09:14:20.180Z,8.50
2023-05-09T09:16:49.749Z,8.68
2023-05-09T09:19:18.044Z,8.75
2023-05-09T09:21:47.493Z,7.45
2023-05-09T09:24:15.553Z,7.97
2023-05-09T09:26:47.846Z,8.25
2023-05-09T09:29:16.230Z,8.82
2023-05-09T09:31:48.163Z,7.88
2023-05-09T09:34:21.336Z,8.57
2023-05-09T09:36:49.138Z,8.05
2023-05-09T09:39:16.704Z,8.00
2023-05-09T09:41:44.920Z,7.65
2023-05-09T09:44:14.619Z,7.35
2023-05-09T09:46:52.646Z,7.55
2023-05-09T09:49:25.778Z,7.88
2023-05-09T09:51:54.752Z,7.47
2023-05-09T09:54:22.638Z,7.10
2023-05-09T09:56:56.471Z,7.07
2023-05-09T09:59:25.744Z,6.15
2023-05-09T10:02:04.017Z,7.07
2023-05-09T10:04:41.730Z,7.45
2023-05-09T10:07:14.353Z,7.18
2023-05-09T10:09:43.710Z,6.97
2023-05-09T10:12:11.893Z,6.63
2023-05-09T10:14:42.529Z,6.65
2023-05-09T10:17:13.549Z,6.07
2023-05-09T10:19:46.059Z,6.13
2023-05-09T10:22:16.066Z,6.28
2023-05-09T10:24:57.957Z,6.90
2023-05-09T10:27:28.796Z,6.80
2023-05-09T10:30:08.744Z,7.75
2023-05-09T10:32:38.556Z,7.13
2023-05-09T10:35:08.438Z,7.85
2023-05-09T10:37:35.830Z,6.05
2023-05-09T10:40:05.442Z,6.60
2023-05-09T10:42:36.555Z,6.28
2023-05-09T10:45:03.731Z,6.82
2023-05-09T10:47:33.245Z,7.68
2023-05-09T10:50:00.697Z,6.55
2023-05-09T10:53:07.373Z,6.65
2023-05-09T10:55:53.080Z,6.82
2023-05-09T10:58:21.747Z,6.85
2023-05-09T11:00:49.786Z,7.20
2023-05-09T11:03:20.936Z,7.20
2023-05-09T11:05:50.382Z,6.72
2023-05-09T11:08:26.276Z,6.75
2023-05-09T11:10:58.176Z,7.15
2023-05-09T11:13:26.281Z,6.43
2023-05-09T11:15:59.089Z,7.10
2023-05-09T11:18:26.431Z,6.77
2023-05-09T11:20:53.854Z,7.43
2023-05-09T11:23:25.470Z,7.38
2023-05-09T11:25:53.736Z,6.40
2023-05-09T11:28:32.413Z,6.55
2023-05-09T11:31:12.676Z,6.70
2023-05-09T11:33:40.970Z,6.18
2023-05-09T11:36:30.068Z,7.05
2023-05-09T11:39:11.506Z,6.78
2023-05-09T11:41:48.781Z,7.20
2023-05-09T11:44:20.969Z,6.85
2023-05-09T11:46:49.223Z,6.45
2023-05-09T11:49:17.206Z,6.75
2023-05-09T11:51:44.419Z,6.28
2023-05-09T11:54:13.630Z,6.75
2023-05-09T11:56:42.026Z,6.57
2023-05-09T11:59:10.544Z,7.13
2023-05-09T12:01:37.818Z,7.28
2023-05-09T12:04:08.675Z,7.90
2023-05-09T12:06:37.026Z,7.25
2023-05-09T12:09:04.179Z,7.13
2023-05-09T12:11:32.407Z,7.28
2023-05-09T12:13:59.601Z,7.55
2023-05-09T12:16:26.871Z,6.63
2023-05-09T12:18:54.742Z,6.63
2023-05-09T12:21:22.105Z,7.18
2023-05-09T12:23:51.232Z,7.38
2023-05-09T12:26:22.146Z,7.80
2023-05-09T12:28:49.977Z,7.05
2023-05-09T12:31:17.592Z,7.05
2023-05-09T12:33:44.805Z,7.65
2023-05-09T12:36:13.718Z,7.18
2023-05-09T12:38:41.198Z,7.47
2023-05-09T12:41:18.851Z,8.13
2023-05-09T12:43:57.166Z,7.65
2023-05-09T12:46:24.372Z,7.95
2023-05-09T12:48:51.764Z,7.75
2023-05-09T12:51:20.611Z,7.82
2023-05-09T12:53:48.412Z,8.27
2023-05-09T12:56:17.673Z,8.55
2023-05-09T12:58:52.121Z,7.72
2023-05-09T13:01:20.808Z,7.63
2023-05-09T13:04:02.751Z,7.45
2023-05-09T13:06:30.733Z,7.60
2023-05-09T13:09:06.634Z,6.45
2023-05-09T13:11:33.825Z,5.90
2023-05-09T13:14:03.269Z,7.55
2023-05-09T13:16:30.431Z,6.55
2023-05-09T13:18:58.074Z,6.50
2023-05-09T13:21:25.318Z,5.97
2023-05-09T13:23:52.632Z,6.55
2023-05-09T13:26:19.850Z,6.07
2023-05-09T13:28:47.582Z,5.93
2023-05-09T13:31:14.794Z,6.90
2023-05-09T13:33:41.952Z,6.47
2023-05-09T13:36:09.101Z,6.43
2023-05-09T13:38:40.430Z,5.97
2023-05-09T13:41:08.310Z,6.65
2023-05-09T13:43:37.156Z,6.43
2023-05-09T13:46:04.243Z,6.40
2023-05-09T13:48:42.383Z,6.00
2023-05-09T14:37:14.088Z,6.75
2023-05-09T14:47:13.106Z,4.78
2023-05-09T14:54:04.456Z,5.43
2023-05-09T14:56:31.804Z,5.50
2023-05-09T14:58:58.948Z,5.05
2023-05-09T15:01:26.143Z,5.10
2023-05-09T15:03:53.412Z,4.22
2023-05-09T15:06:20.767Z,4.30
2023-05-09T15:08:47.918Z,4.50
2023-05-09T15:11:14.958Z,4.50
2023-05-09T15:13:42.074Z,3.92
2023-05-09T15:16:09.142Z,4.15
2023-05-09T15:18:36.712Z,4.68
2023-05-09T15:21:03.996Z,4.20
2023-05-09T15:23:31.061Z,5.40
2023-05-09T15:25:58.213Z,5.03
2023-05-09T15:28:25.479Z,5.43
2023-05-09T15:30:52.696Z,5.38
2023-05-09T15:33:19.832Z,5.75
2023-05-09T15:35:49.111Z,5.10
2023-05-09T15:38:17.178Z,5.72
2023-05-09T15:40:44.402Z,4.93
2023-05-09T15:43:12.983Z,5.40
2023-05-09T15:47:17.672Z,5.13
2023-05-09T15:49:44.959Z,5.25
2023-05-09T15:52:12.538Z,4.10
2023-05-09T15:54:40.049Z,4.80
2023-05-09T15:57:08.160Z,5.32
2023-05-09T15:59:35.916Z,5.22
2023-05-09T16:02:03.256Z,5.38
2023-05-09T16:04:30.595Z,5.45
2023-05-09T16:06:57.823Z,6.00
2023-05-09T16:09:25.381Z,4.47
2023-05-09T16:11:52.791Z,4.57
2023-05-09T16:14:20.057Z,4.40
2023-05-09T16:16:49.981Z,5.00
2023-05-09T16:19:17.770Z,4.43
2023-05-09T16:21:47.715Z,4.80
2023-05-09T16:24:14.887Z,4.60
2023-05-09T16:26:41.994Z,3.72
2023-05-09T16:29:09.911Z,3.22
2023-05-09T16:31:37.361Z,2.00
2023-05-09T16:34:04.711Z,2.60
2023-05-09T16:36:32.819Z,2.25
2023-05-09T16:38:59.993Z,1.73
2023-05-09T16:41:27.196Z,2.17
2023-05-09T16:43:54.415Z,2.58
2023-05-09T16:46:21.692Z,2.92
2023-05-09T16:48:51.735Z,3.28
2023-05-09T16:51:18.788Z,3.25
2023-05-09T16:53:46.067Z,2.92
2023-05-09T16:56:13.228Z,3.25
2023-05-09T16:58:40.336Z,3.33
2023-05-09T17:01:07.440Z,3.55
2023-05-09T17:03:34.673Z,3.80
2023-05-09T17:06:01.874Z,4.00
2023-05-09T17:08:29.768Z,4.22
2023-05-09T17:10:57.624Z,3.90
2023-05-09T17:13:24.907Z,4.43
2023-05-09T17:15:52.700Z,4.63
2023-05-09T17:18:33.396Z,4.90
2023-05-09T17:21:05.057Z,4.60
2023-05-09T17:23:32.448Z,5.57
2023-05-09T17:25:59.598Z,5.75
2023-05-09T17:28:26.956Z,5.55
2023-05-09T17:30:54.081Z,5.72
2023-05-09T17:33:21.221Z,5.97
2023-05-09T17:35:49.570Z,5.72
2023-05-09T17:38:17.360Z,5.60
2023-05-09T17:40:44.942Z,5.82
2023-05-09T17:43:13.321Z,5.80
2023-05-09T17:45:40.421Z,5.88
2023-05-09T17:48:08.088Z,6.55
2023-05-09T17:50:35.267Z,6.75
2023-05-09T17:53:02.564Z,6.63
2023-05-09T17:55:30.373Z,6.75
2023-05-09T17:57:57.422Z,6.97
2023-05-09T18:00:24.523Z,6.82
2023-05-09T18:02:51.743Z,6.35
2023-05-09T18:05:18.873Z,6.43
2023-05-09T18:07:46.007Z,7.30
2023-05-09T18:10:13.534Z,7.80
2023-05-09T18:12:40.922Z,7.03
2023-05-09T18:15:08.559Z,7.75
2023-05-09T18:17:36.057Z,7.57
2023-05-09T18:20:05.031Z,8.10
2023-05-09T18:22:32.089Z,8.05
2023-05-09T18:24:59.383Z,7.82
2023-05-09T18:27:27.200Z,8.93
2023-05-09T18:29:54.346Z,8.27
2023-05-09T18:32:21.878Z,8.13
2023-05-09T18:34:49.390Z,7.60
2023-05-09T18:37:17.116Z,8.10
2023-05-09T18:39:44.775Z,7.35
2023-05-09T18:42:12.942Z,8.35
2023-05-09T18:44:41.690Z,8.35
2023-05-09T18:47:08.769Z,8.27
2023-05-09T18:49:36.172Z,7.78
2023-05-09T18:52:03.458Z,9.45
2023-05-09T18:54:30.703Z,8.00
2023-05-09T18:56:58.077Z,7.65
2023-05-09T18:59:25.165Z,7.32
2023-05-09T19:01:52.384Z,7.43
2023-05-09T19:04:19.949Z,7.72
2023-05-09T19:06:47.266Z,7.75
2023-05-09T19:09:14.450Z,7.57
2023-05-09T19:11:41.935Z,6.85
2023-05-09T19:14:09.127Z,7.90
2023-05-09T19:16:36.363Z,6.50
2023-05-09T19:19:03.484Z,7.00
2023-05-09T19:21:30.663Z,7.50
2023-05-09T19:23:57.767Z,7.40
2023-05-09T19:26:24.881Z,7.55
2023-05-09T19:28:51.976Z,7.20
2023-05-09T19:31:20.461Z,7.20
2023-05-09T19:33:47.953Z,8.27
2023-05-09T19:36:15.107Z,8.00
2023-05-09T19:38:42.297Z,8.18
2023-05-09T19:41:10.867Z,7.50
2023-05-09T19:43:37.983Z,7.75
2023-05-09T19:46:05.173Z,7.05
2023-05-09T19:48:32.298Z,7.50
2023-05-09T19:50:59.438Z,7.93
2023-05-09T19:53:26.658Z,7.30
2023-05-09T19:55:53.693Z,6.88
2023-05-09T19:58:20.893Z,6.95
2023-05-09T20:00:48.557Z,6.63
2023-05-09T20:03:15.803Z,7.05
2023-05-09T20:05:43.188Z,7.18
2023-05-09T20:08:10.493Z,7.15
2023-05-09T20:10:37.620Z,6.63
2023-05-09T20:13:04.983Z,5.90
2023-05-09T20:15:32.345Z,6.05
2023-05-09T20:18:03.238Z,6.18
2023-05-09T20:20:33.592Z,5.47
2023-05-09T20:23:00.761Z,6.30
2023-05-09T20:25:27.927Z,5.70
2023-05-09T20:27:55.023Z,6.07
2023-05-09T20:30:22.229Z,6.10
2023-05-09T20:32:49.465Z,6.78
2023-05-09T20:35:17.293Z,6.63
2023-05-09T20:37:44.371Z,6.95
2023-05-09T20:40:12.236Z,7.22
2023-05-09T20:42:39.310Z,6.82
2023-05-09T20:45:07.740Z,7.22
2023-05-09T20:47:35.231Z,8.18
2023-05-09T20:50:02.379Z,7.20
2023-05-09T20:52:29.457Z,8.40
2023-05-09T20:54:56.657Z,8.32
2023-05-09T20:57:23.801Z,7.95
2023-05-09T20:59:50.952Z,8.18
2023-05-09T21:02:18.073Z,7.35
2023-05-09T21:04:45.257Z,8.43
2023-05-09T21:07:12.458Z,7.22
2023-05-09T21:09:39.704Z,8.00
2023-05-09T21:12:09.190Z,7.88
2023-05-09T21:14:37.667Z,8.40
2023-05-09T21:17:05.466Z,8.15
2023-05-09T21:19:34.143Z,7.97
2023-05-09T21:22:01.601Z,8.57
2023-05-09T21:24:28.787Z,8.27
2023-05-09T21:26:56.143Z,9.10
2023-05-09T21:29:23.221Z,9.25
2023-05-09T21:31:50.343Z,8.73
2023-05-09T21:34:18.723Z,8.73
2023-05-09T21:36:46.136Z,9.88
2023-05-09T21:39:13.323Z,10.20
2023-05-09T21:41:42.659Z,11.20
2023-05-09T21:44:11.251Z,11.05
2023-05-09T21:46:38.540Z,11.30
2023-05-09T21:49:06.561Z,11.18
2023-05-09T21:51:34.231Z,11.43
2023-05-09T21:54:01.990Z,11.05
2023-05-09T21:56:29.539Z,10.23
2023-05-09T21:58:56.687Z,11.35
2023-05-09T22:01:23.888Z,11.27
2023-05-09T22:03:51.692Z,10.52
2023-05-09T22:06:18.946Z,11.63
2023-05-09T22:08:46.167Z,11.48
2023-05-09T22:11:14.761Z,10.85
2023-05-09T22:13:42.425Z,11.88
2023-05-09T22:16:09.756Z,12.07
2023-05-09T22:18:37.145Z,12.82
2023-05-09T22:21:05.227Z,12.73
2023-05-09T22:23:32.300Z,11.88
2023-05-09T22:25:59.314Z,13.60
2023-05-09T22:28:26.379Z,14.57
2023-05-09T22:30:53.419Z,12.60
2023-05-09T22:33:20.473Z,13.48
2023-05-09T22:35:47.908Z,14.57
2023-05-09T22:38:15.147Z,14.35
2023-05-09T22:40:42.330Z,15.20
2023-05-09T22:43:10.847Z,15.38
2023-05-09T22:45:41.011Z,14.55
2023-05-09T22:48:08.364Z,16.85
2023-05-09T22:50:36.020Z,15.85
2023-05-09T22:53:03.090Z,15.18
2023-05-09T22:55:30.379Z,16.25
2023-05-09T22:57:57.378Z,17.58
2023-05-09T23:00:24.523Z,16.90
2023-05-09T23:02:51.777Z,17.55
2023-05-09T23:05:18.964Z,16.63
2023-05-09T23:07:46.190Z,18.15
2023-05-09T23:10:13.412Z,18.65
2023-05-09T23:12:40.611Z,18.30
2023-05-09T23:15:08.464Z,17.20
2023-05-09T23:17:35.995Z,18.90
2023-05-09T23:20:04.058Z,18.40
2023-05-09T23:22:31.165Z,19.33
2023-05-09T23:25:00.751Z,19.02
2023-05-09T23:27:28.350Z,19.27
2023-05-09T23:29:55.382Z,21.58
2023-05-09T23:32:22.523Z,20.67
2023-05-09T23:34:49.640Z,19.27
2023-05-09T23:37:17.657Z,21.02
2023-05-09T23:39:44.780Z,20.67
2023-05-09T23:42:12.386Z,20.27
2023-05-09T23:44:39.591Z,22.33
2023-05-09T23:47:06.997Z,21.42
2023-05-09T23:49:34.152Z,21.50
2023-05-09T23:52:01.655Z,20.98
2023-05-09T23:54:28.790Z,22.95
2023-05-09T23:56:59.004Z,21.50
2023-05-09T23:59:26.128Z,22.77
